TimeCST,TemperatureF,Dew PointF,Humidity,Sea Level PressureIn,VisibilityMPH,Wind Direction,Wind SpeedMPH,Gust SpeedMPH,PrecipitationIn,Events,Conditions,WindDirDegrees,DateUTC
12:52 AM,48.0,42.1,80,30.50,10.0,North,12.7,-,N/A,,Clear,10,2013-12-12 06:52:00
1:52 AM,46.9,39.9,77,30.49,10.0,North,16.1,-,N/A,,Clear,10,2013-12-12 07:52:00
2:52 AM,45.0,39.0,80,30.49,10.0,NNE,18.4,-,N/A,,Clear,20,2013-12-12 08:52:00
3:52 AM,44.1,39.0,82,30.49,10.0,NNE,16.1,-,N/A,,Clear,30,2013-12-12 09:52:00
4:52 AM,44.1,37.9,79,30.50,10.0,NNE,15.0,-,N/A,,Clear,20,2013-12-12 10:52:00
5:52 AM,43.0,37.0,80,30.50,10.0,North,17.3,-,N/A,,Clear,10,2013-12-12 11:52:00
6:52 AM,42.1,37.0,82,30.51,10.0,NNE,17.3,-,N/A,,Clear,20,2013-12-12 12:52:00
7:52 AM,42.1,37.0,82,30.53,10.0,NNE,13.8,-,N/A,,Clear,20,2013-12-12 13:52:00
8:52 AM,43.0,37.0,80,30.53,10.0,NNE,15.0,-,N/A,,Clear,20,2013-12-12 14:52:00
9:52 AM,45.0,37.0,74,30.54,10.0,North,12.7,-,N/A,,Clear,10,2013-12-12 15:52:00
10:52 AM,46.9,37.9,71,30.53,10.0,North,11.5,-,N/A,,Clear,10,2013-12-12 16:52:00
11:52 AM,48.0,39.0,71,30.52,10.0,North,15.0,-,N/A,,Clear,360,2013-12-12 17:52:00
12:52 PM,48.9,39.9,71,30.48,10.0,North,13.8,-,N/A,,Clear,10,2013-12-12 18:52:00
1:52 PM,50.0,39.9,68,30.44,10.0,North,13.8,-,N/A,,Clear,360,2013-12-12 19:52:00
2:52 PM,50.0,39.9,68,30.43,10.0,North,12.7,-,N/A,,Clear,360,2013-12-12 20:52:00
3:52 PM,50.0,39.9,68,30.42,10.0,North,8.1,-,N/A,,Clear,360,2013-12-12 21:52:00
4:52 PM,50.0,41.0,71,30.40,10.0,North,6.9,-,N/A,,Clear,360,2013-12-12 22:52:00
5:52 PM,50.0,42.1,74,30.40,10.0,NNE,5.8,-,N/A,,Clear,20,2013-12-12 23:52:00
6:52 PM,48.9,43.0,80,30.41,10.0,NE,5.8,-,N/A,,Clear,40,2013-12-13 00:52:00
7:52 PM,50.0,39.0,66,30.43,10.0,NE,10.4,-,N/A,,Clear,40,2013-12-13 01:52:00
8:52 PM,48.9,39.9,71,30.42,10.0,NE,5.8,-,N/A,,Clear,40,2013-12-13 02:52:00
9:52 PM,48.0,41.0,77,30.40,10.0,NE,4.6,-,N/A,,Clear,50,2013-12-13 03:52:00
10:52 PM,48.0,42.1,80,30.38,10.0,Calm,Calm,-,N/A,,Clear,0,2013-12-13 04:52:00
11:52 PM,48.0,43.0,83,30.35,10.0,NNE,4.6,-,N/A,,Clear,20,2013-12-13 05:52:00